Terminal Aerodrome Forecast
Issued by NWS Boston, MA

Home | Current Version | Previous Version | Text Only | Print | Product List | Glossary On
Versions: 1 2 3 4 5 6 7 8 9 10 11 12 13 14 15 16 17 18 19 20 21
000
FTUS41 KBOX 202321
TAFBDL
TAF
KBDL 202321Z 2100/2206 18007KT P6SM SKC
     FM210400 VRB03KT P6SM SKC
     FM211900 20007KT P6SM FEW130=

USA.gov is the U.S. government's official web portal to all federal, state and local government web resources and services.